sensor_id;sensor_type;location;lat;lon;timestamp;P1;durP1;ratioP1;P2;durP2;ratioP2
10769;SDS011;5437;50.852;4.438;2023-04-22T00:02:14;21.77;;;18.63;;
10769;SDS011;5437;50.852;4.438;2023-04-22T00:04:41;20.80;;;18.13;;
10769;SDS011;5437;50.852;4.438;2023-04-22T00:07:09;21.10;;;17.92;;
10769;SDS011;5437;50.852;4.438;2023-04-22T00:09:36;23.83;;;18.92;;
10769;SDS011;5437;50.852;4.438;2023-04-22T00:12:03;23.35;;;19.15;;
10769;SDS011;5437;50.852;4.438;2023-04-22T00:14:29;22.45;;;18.35;;
10769;SDS011;5437;50.852;4.438;2023-04-22T00:16:55;23.02;;;18.92;;
10769;SDS011;5437;50.852;4.438;2023-04-22T00:19:22;23.73;;;18.83;;
10769;SDS011;5437;50.852;4.438;2023-04-22T00:21:48;21.55;;;18.08;;
10769;SDS011;5437;50.852;4.438;2023-04-22T00:24:14;22.35;;;18.73;;
10769;SDS011;5437;50.852;4.438;2023-04-22T00:26:40;24.38;;;19.30;;
10769;SDS011;5437;50.852;4.438;2023-04-22T00:29:06;24.92;;;19.10;;
10769;SDS011;5437;50.852;4.438;2023-04-22T00:31:32;22.35;;;19.50;;
10769;SDS011;5437;50.852;4.438;2023-04-22T00:33:58;24.27;;;19.83;;
10769;SDS011;5437;50.852;4.438;2023-04-22T00:36:24;23.83;;;18.88;;
10769;SDS011;5437;50.852;4.438;2023-04-22T00:38:51;24.23;;;19.08;;
10769;SDS011;5437;50.852;4.438;2023-04-22T00:41:17;23.95;;;19.33;;
10769;SDS011;5437;50.852;4.438;2023-04-22T00:43:44;24.08;;;19.83;;
10769;SDS011;5437;50.852;4.438;2023-04-22T00:46:10;22.40;;;18.90;;
10769;SDS011;5437;50.852;4.438;2023-04-22T00:48:37;24.63;;;19.55;;
10769;SDS011;5437;50.852;4.438;2023-04-22T00:51:03;25.25;;;20.63;;
10769;SDS011;5437;50.852;4.438;2023-04-22T00:53:29;23.75;;;19.25;;
10769;SDS011;5437;50.852;4.438;2023-04-22T00:55:56;24.88;;;20.38;;
10769;SDS011;5437;50.852;4.438;2023-04-22T00:58:22;23.60;;;18.90;;
10769;SDS011;5437;50.852;4.438;2023-04-22T01:00:50;24.10;;;19.58;;
10769;SDS011;5437;50.852;4.438;2023-04-22T01:03:16;22.45;;;18.75;;
10769;SDS011;5437;50.852;4.438;2023-04-22T01:05:44;23.90;;;19.15;;
10769;SDS011;5437;50.852;4.438;2023-04-22T01:08:11;25.02;;;19.33;;
10769;SDS011;5437;50.852;4.438;2023-04-22T01:10:37;25.02;;;19.70;;
10769;SDS011;5437;50.852;4.438;2023-04-22T01:13:03;24.50;;;20.10;;
10769;SDS011;5437;50.852;4.438;2023-04-22T01:15:29;25.05;;;20.50;;
10769;SDS011;5437;50.852;4.438;2023-04-22T01:17:56;24.77;;;20.10;;
10769;SDS011;5437;50.852;4.438;2023-04-22T01:20:23;27.27;;;20.80;;
10769;SDS011;5437;50.852;4.438;2023-04-22T01:22:52;24.30;;;19.65;;
10769;SDS011;5437;50.852;4.438;2023-04-22T01:25:18;23.67;;;19.13;;
10769;SDS011;5437;50.852;4.438;2023-04-22T01:27:44;25.55;;;19.95;;
10769;SDS011;5437;50.852;4.438;2023-04-22T01:30:10;24.80;;;19.95;;
10769;SDS011;5437;50.852;4.438;2023-04-22T01:32:37;24.67;;;19.77;;
10769;SDS011;5437;50.852;4.438;2023-04-22T01:35:03;24.38;;;19.85;;
10769;SDS011;5437;50.852;4.438;2023-04-22T01:37:30;23.73;;;19.05;;
10769;SDS011;5437;50.852;4.438;2023-04-22T01:39:56;25.02;;;20.70;;
10769;SDS011;5437;50.852;4.438;2023-04-22T01:42:23;25.92;;;20.30;;
10769;SDS011;5437;50.852;4.438;2023-04-22T01:44:49;26.30;;;20.58;;
10769;SDS011;5437;50.852;4.438;2023-04-22T01:47:15;26.88;;;20.08;;
10769;SDS011;5437;50.852;4.438;2023-04-22T01:49:41;24.92;;;19.77;;
10769;SDS011;5437;50.852;4.438;2023-04-22T01:52:07;26.75;;;20.52;;
10769;SDS011;5437;50.852;4.438;2023-04-22T01:54:33;27.17;;;21.20;;
10769;SDS011;5437;50.852;4.438;2023-04-22T01:57:05;27.30;;;20.60;;
10769;SDS011;5437;50.852;4.438;2023-04-22T01:59:31;25.17;;;20.92;;
10769;SDS011;5437;50.852;4.438;2023-04-22T02:01:57;24.27;;;20.05;;
10769;SDS011;5437;50.852;4.438;2023-04-22T02:04:23;26.25;;;20.65;;
10769;SDS011;5437;50.852;4.438;2023-04-22T02:06:49;25.02;;;20.45;;
10769;SDS011;5437;50.852;4.438;2023-04-22T02:09:15;26.17;;;20.75;;
10769;SDS011;5437;50.852;4.438;2023-04-22T02:11:41;27.30;;;20.90;;
10769;SDS011;5437;50.852;4.438;2023-04-22T02:14:07;24.30;;;19.83;;
10769;SDS011;5437;50.852;4.438;2023-04-22T02:16:33;27.20;;;21.05;;
10769;SDS011;5437;50.852;4.438;2023-04-22T02:18:59;26.27;;;20.73;;
10769;SDS011;5437;50.852;4.438;2023-04-22T02:21:28;29.25;;;21.67;;
10769;SDS011;5437;50.852;4.438;2023-04-22T02:23:56;29.08;;;20.60;;
10769;SDS011;5437;50.852;4.438;2023-04-22T02:26:22;28.05;;;21.58;;
10769;SDS011;5437;50.852;4.438;2023-04-22T02:28:49;27.45;;;22.48;;
10769;SDS011;5437;50.852;4.438;2023-04-22T02:31:15;28.27;;;21.48;;
10769;SDS011;5437;50.852;4.438;2023-04-22T02:33:42;27.25;;;22.23;;
10769;SDS011;5437;50.852;4.438;2023-04-22T02:36:08;26.13;;;21.40;;
10769;SDS011;5437;50.852;4.438;2023-04-22T02:38:35;25.75;;;21.60;;
10769;SDS011;5437;50.852;4.438;2023-04-22T02:41:01;25.40;;;20.52;;
10769;SDS011;5437;50.852;4.438;2023-04-22T02:43:27;26.15;;;20.75;;
10769;SDS011;5437;50.852;4.438;2023-04-22T02:45:53;30.73;;;23.30;;
10769;SDS011;5437;50.852;4.438;2023-04-22T02:48:19;28.45;;;22.00;;
10769;SDS011;5437;50.852;4.438;2023-04-22T02:50:46;27.48;;;21.48;;
10769;SDS011;5437;50.852;4.438;2023-04-22T02:53:12;26.45;;;21.42;;
10769;SDS011;5437;50.852;4.438;2023-04-22T02:55:38;27.88;;;21.15;;
10769;SDS011;5437;50.852;4.438;2023-04-22T02:58:05;25.65;;;20.92;;
10769;SDS011;5437;50.852;4.438;2023-04-22T03:00:31;25.48;;;20.17;;
10769;SDS011;5437;50.852;4.438;2023-04-22T03:02:57;26.25;;;21.40;;
10769;SDS011;5437;50.852;4.438;2023-04-22T03:05:23;26.75;;;21.15;;
10769;SDS011;5437;50.852;4.438;2023-04-22T03:07:49;25.50;;;20.67;;
10769;SDS011;5437;50.852;4.438;2023-04-22T03:10:16;27.55;;;20.80;;
10769;SDS011;5437;50.852;4.438;2023-04-22T03:12:42;27.42;;;20.58;;
10769;SDS011;5437;50.852;4.438;2023-04-22T03:15:08;25.75;;;21.15;;
10769;SDS011;5437;50.852;4.438;2023-04-22T03:17:34;27.30;;;21.40;;
10769;SDS011;5437;50.852;4.438;2023-04-22T03:20:00;26.38;;;20.80;;
10769;SDS011;5437;50.852;4.438;2023-04-22T03:22:26;26.92;;;22.08;;
10769;SDS011;5437;50.852;4.438;2023-04-22T03:24:53;26.17;;;21.58;;
10769;SDS011;5437;50.852;4.438;2023-04-22T03:27:20;27.80;;;21.42;;
10769;SDS011;5437;50.852;4.438;2023-04-22T03:29:46;26.33;;;21.23;;
10769;SDS011;5437;50.852;4.438;2023-04-22T03:32:12;25.35;;;21.13;;
10769;SDS011;5437;50.852;4.438;2023-04-22T03:34:38;25.90;;;20.90;;
10769;SDS011;5437;50.852;4.438;2023-04-22T03:37:04;26.77;;;21.55;;
10769;SDS011;5437;50.852;4.438;2023-04-22T03:39:30;25.63;;;20.73;;
10769;SDS011;5437;50.852;4.438;2023-04-22T03:41:56;24.30;;;19.15;;
10769;SDS011;5437;50.852;4.438;2023-04-22T03:44:22;26.13;;;20.33;;
10769;SDS011;5437;50.852;4.438;2023-04-22T03:46:48;24.95;;;19.75;;
10769;SDS011;5437;50.852;4.438;2023-04-22T03:49:14;25.48;;;20.30;;
10769;SDS011;5437;50.852;4.438;2023-04-22T03:51:40;23.90;;;19.98;;
10769;SDS011;5437;50.852;4.438;2023-04-22T03:54:06;23.95;;;18.92;;
10769;SDS011;5437;50.852;4.438;2023-04-22T03:56:32;25.85;;;20.85;;
10769;SDS011;5437;50.852;4.438;2023-04-22T03:58:59;25.55;;;20.67;;
10769;SDS011;5437;50.852;4.438;2023-04-22T04:01:25;23.98;;;19.65;;
10769;SDS011;5437;50.852;4.438;2023-04-22T04:03:51;27.70;;;20.83;;
10769;SDS011;5437;50.852;4.438;2023-04-22T04:06:17;25.58;;;20.73;;
10769;SDS011;5437;50.852;4.438;2023-04-22T04:08:43;26.70;;;20.30;;
10769;SDS011;5437;50.852;4.438;2023-04-22T04:11:09;24.95;;;19.95;;
10769;SDS011;5437;50.852;4.438;2023-04-22T04:13:35;24.30;;;19.80;;
10769;SDS011;5437;50.852;4.438;2023-04-22T04:16:01;25.83;;;20.30;;
10769;SDS011;5437;50.852;4.438;2023-04-22T04:18:28;26.02;;;20.58;;
10769;SDS011;5437;50.852;4.438;2023-04-22T04:20:54;25.23;;;20.17;;
10769;SDS011;5437;50.852;4.438;2023-04-22T04:23:20;24.48;;;20.25;;
10769;SDS011;5437;50.852;4.438;2023-04-22T04:25:47;27.30;;;21.02;;
10769;SDS011;5437;50.852;4.438;2023-04-22T04:28:13;26.65;;;20.58;;
10769;SDS011;5437;50.852;4.438;2023-04-22T04:30:41;24.33;;;19.55;;
10769;SDS011;5437;50.852;4.438;2023-04-22T04:33:07;24.13;;;19.55;;
10769;SDS011;5437;50.852;4.438;2023-04-22T04:35:34;25.67;;;18.98;;
10769;SDS011;5437;50.852;4.438;2023-04-22T04:38:02;24.73;;;19.63;;
10769;SDS011;5437;50.852;4.438;2023-04-22T04:40:29;25.33;;;20.20;;
10769;SDS011;5437;50.852;4.438;2023-04-22T04:42:55;25.02;;;19.50;;
10769;SDS011;5437;50.852;4.438;2023-04-22T04:45:22;25.15;;;19.20;;
10769;SDS011;5437;50.852;4.438;2023-04-22T04:47:48;23.50;;;19.45;;
10769;SDS011;5437;50.852;4.438;2023-04-22T04:50:15;24.92;;;19.77;;
10769;SDS011;5437;50.852;4.438;2023-04-22T04:52:41;24.98;;;19.85;;
10769;SDS011;5437;50.852;4.438;2023-04-22T04:55:07;26.60;;;19.42;;
10769;SDS011;5437;50.852;4.438;2023-04-22T04:57:33;24.63;;;19.67;;
10769;SDS011;5437;50.852;4.438;2023-04-22T04:59:59;23.90;;;18.98;;
10769;SDS011;5437;50.852;4.438;2023-04-22T05:02:26;26.05;;;19.92;;
10769;SDS011;5437;50.852;4.438;2023-04-22T05:04:53;22.88;;;18.67;;
10769;SDS011;5437;50.852;4.438;2023-04-22T05:07:19;24.52;;;19.52;;
10769;SDS011;5437;50.852;4.438;2023-04-22T05:09:45;23.88;;;18.92;;
10769;SDS011;5437;50.852;4.438;2023-04-22T05:12:11;25.08;;;19.65;;
10769;SDS011;5437;50.852;4.438;2023-04-22T05:14:37;24.33;;;19.15;;
10769;SDS011;5437;50.852;4.438;2023-04-22T05:17:04;25.40;;;19.65;;
10769;SDS011;5437;50.852;4.438;2023-04-22T05:19:30;25.17;;;18.92;;
10769;SDS011;5437;50.852;4.438;2023-04-22T05:21:56;24.52;;;19.58;;
10769;SDS011;5437;50.852;4.438;2023-04-22T05:24:23;28.55;;;20.60;;
10769;SDS011;5437;50.852;4.438;2023-04-22T05:26:49;25.48;;;20.02;;
10769;SDS011;5437;50.852;4.438;2023-04-22T05:29:15;26.17;;;20.63;;
10769;SDS011;5437;50.852;4.438;2023-04-22T05:31:41;24.67;;;20.10;;
10769;SDS011;5437;50.852;4.438;2023-04-22T05:34:07;26.50;;;20.27;;
10769;SDS011;5437;50.852;4.438;2023-04-22T05:36:33;26.73;;;19.98;;
10769;SDS011;5437;50.852;4.438;2023-04-22T05:39:00;26.13;;;20.05;;
10769;SDS011;5437;50.852;4.438;2023-04-22T05:41:28;22.98;;;19.20;;
10769;SDS011;5437;50.852;4.438;2023-04-22T05:43:54;25.23;;;20.40;;
10769;SDS011;5437;50.852;4.438;2023-04-22T05:46:20;25.27;;;19.75;;
10769;SDS011;5437;50.852;4.438;2023-04-22T05:48:46;25.77;;;20.58;;
10769;SDS011;5437;50.852;4.438;2023-04-22T05:51:13;24.40;;;20.70;;
10769;SDS011;5437;50.852;4.438;2023-04-22T05:53:39;26.52;;;21.42;;
10769;SDS011;5437;50.852;4.438;2023-04-22T05:56:05;25.20;;;20.58;;
10769;SDS011;5437;50.852;4.438;2023-04-22T05:58:31;26.33;;;21.00;;
10769;SDS011;5437;50.852;4.438;2023-04-22T06:00:57;25.30;;;20.83;;
10769;SDS011;5437;50.852;4.438;2023-04-22T06:03:23;26.88;;;21.45;;
10769;SDS011;5437;50.852;4.438;2023-04-22T06:05:49;27.58;;;21.77;;
10769;SDS011;5437;50.852;4.438;2023-04-22T06:08:15;25.83;;;20.55;;
10769;SDS011;5437;50.852;4.438;2023-04-22T06:10:41;25.63;;;20.20;;
10769;SDS011;5437;50.852;4.438;2023-04-22T06:13:07;25.25;;;20.73;;
10769;SDS011;5437;50.852;4.438;2023-04-22T06:15:34;26.45;;;22.17;;
10769;SDS011;5437;50.852;4.438;2023-04-22T06:18:00;27.60;;;21.58;;
10769;SDS011;5437;50.852;4.438;2023-04-22T06:20:26;25.70;;;21.33;;
10769;SDS011;5437;50.852;4.438;2023-04-22T06:22:52;25.88;;;20.83;;
10769;SDS011;5437;50.852;4.438;2023-04-22T06:25:18;27.85;;;21.80;;
10769;SDS011;5437;50.852;4.438;2023-04-22T06:27:44;25.88;;;20.70;;
10769;SDS011;5437;50.852;4.438;2023-04-22T06:30:10;25.63;;;20.83;;
10769;SDS011;5437;50.852;4.438;2023-04-22T06:32:38;28.38;;;22.25;;
10769;SDS011;5437;50.852;4.438;2023-04-22T06:35:04;24.40;;;20.02;;
10769;SDS011;5437;50.852;4.438;2023-04-22T06:37:30;24.88;;;21.17;;
10769;SDS011;5437;50.852;4.438;2023-04-22T06:39:56;26.50;;;21.25;;
10769;SDS011;5437;50.852;4.438;2023-04-22T06:42:23;25.38;;;20.85;;
10769;SDS011;5437;50.852;4.438;2023-04-22T06:44:49;27.30;;;21.02;;
10769;SDS011;5437;50.852;4.438;2023-04-22T06:47:15;26.60;;;21.52;;
10769;SDS011;5437;50.852;4.438;2023-04-22T06:49:41;23.67;;;19.63;;
10769;SDS011;5437;50.852;4.438;2023-04-22T06:52:08;25.58;;;21.02;;
10769;SDS011;5437;50.852;4.438;2023-04-22T06:54:35;23.85;;;19.85;;
10769;SDS011;5437;50.852;4.438;2023-04-22T06:57:02;24.65;;;20.90;;
10769;SDS011;5437;50.852;4.438;2023-04-22T06:59:28;25.25;;;20.63;;
10769;SDS011;5437;50.852;4.438;2023-04-22T07:01:54;26.85;;;22.02;;
10769;SDS011;5437;50.852;4.438;2023-04-22T07:04:20;24.73;;;20.88;;
10769;SDS011;5437;50.852;4.438;2023-04-22T07:06:46;25.35;;;20.90;;
10769;SDS011;5437;50.852;4.438;2023-04-22T07:09:12;24.77;;;20.35;;
10769;SDS011;5437;50.852;4.438;2023-04-22T07:11:38;23.50;;;19.77;;
10769;SDS011;5437;50.852;4.438;2023-04-22T07:14:04;23.60;;;19.40;;
10769;SDS011;5437;50.852;4.438;2023-04-22T07:16:31;24.60;;;19.88;;
10769;SDS011;5437;50.852;4.438;2023-04-22T07:18:57;22.65;;;19.33;;
10769;SDS011;5437;50.852;4.438;2023-04-22T07:21:23;22.02;;;19.35;;
10769;SDS011;5437;50.852;4.438;2023-04-22T07:23:49;23.92;;;19.48;;
10769;SDS011;5437;50.852;4.438;2023-04-22T07:26:15;23.88;;;19.73;;
10769;SDS011;5437;50.852;4.438;2023-04-22T07:28:43;21.85;;;18.80;;
10769;SDS011;5437;50.852;4.438;2023-04-22T07:31:09;21.35;;;18.58;;
10769;SDS011;5437;50.852;4.438;2023-04-22T07:33:35;24.17;;;19.63;;
10769;SDS011;5437;50.852;4.438;2023-04-22T07:36:01;23.33;;;19.35;;
10769;SDS011;5437;50.852;4.438;2023-04-22T07:38:27;22.13;;;18.58;;
10769;SDS011;5437;50.852;4.438;2023-04-22T07:40:53;19.48;;;16.85;;
10769;SDS011;5437;50.852;4.438;2023-04-22T07:43:19;22.15;;;18.52;;
10769;SDS011;5437;50.852;4.438;2023-04-22T07:45:45;22.40;;;18.35;;
10769;SDS011;5437;50.852;4.438;2023-04-22T07:48:11;19.38;;;17.27;;
10769;SDS011;5437;50.852;4.438;2023-04-22T07:50:38;20.83;;;17.10;;
10769;SDS011;5437;50.852;4.438;2023-04-22T07:53:04;19.63;;;17.05;;
10769;SDS011;5437;50.852;4.438;2023-04-22T07:55:30;18.45;;;16.17;;
10769;SDS011;5437;50.852;4.438;2023-04-22T07:57:56;20.70;;;16.75;;
10769;SDS011;5437;50.852;4.438;2023-04-22T08:00:24;19.13;;;16.08;;
10769;SDS011;5437;50.852;4.438;2023-04-22T08:02:50;17.38;;;15.57;;
10769;SDS011;5437;50.852;4.438;2023-04-22T08:05:17;17.25;;;15.45;;
10769;SDS011;5437;50.852;4.438;2023-04-22T08:07:43;17.55;;;14.52;;
10769;SDS011;5437;50.852;4.438;2023-04-22T08:10:09;16.75;;;14.25;;
10769;SDS011;5437;50.852;4.438;2023-04-22T08:12:35;15.95;;;14.30;;
10769;SDS011;5437;50.852;4.438;2023-04-22T08:15:01;15.35;;;13.75;;
10769;SDS011;5437;50.852;4.438;2023-04-22T08:17:27;13.73;;;12.30;;
10769;SDS011;5437;50.852;4.438;2023-04-22T08:19:53;14.57;;;12.88;;
10769;SDS011;5437;50.852;4.438;2023-04-22T08:22:19;14.70;;;12.40;;
10769;SDS011;5437;50.852;4.438;2023-04-22T08:24:47;13.50;;;12.13;;
10769;SDS011;5437;50.852;4.438;2023-04-22T08:27:13;13.65;;;12.18;;
10769;SDS011;5437;50.852;4.438;2023-04-22T08:29:40;12.85;;;11.52;;
10769;SDS011;5437;50.852;4.438;2023-04-22T08:32:06;10.85;;;9.75;;
10769;SDS011;5437;50.852;4.438;2023-04-22T08:34:32;9.95;;;8.98;;
10769;SDS011;5437;50.852;4.438;2023-04-22T08:36:58;10.15;;;9.10;;
10769;SDS011;5437;50.852;4.438;2023-04-22T08:39:25;9.85;;;8.80;;
10769;SDS011;5437;50.852;4.438;2023-04-22T08:41:52;11.55;;;10.38;;
10769;SDS011;5437;50.852;4.438;2023-04-22T08:44:18;10.50;;;9.48;;
10769;SDS011;5437;50.852;4.438;2023-04-22T08:46:45;9.48;;;8.57;;
10769;SDS011;5437;50.852;4.438;2023-04-22T08:49:16;9.32;;;8.40;;
10769;SDS011;5437;50.852;4.438;2023-04-22T08:51:44;7.95;;;7.20;;
10769;SDS011;5437;50.852;4.438;2023-04-22T08:54:10;8.70;;;7.80;;
10769;SDS011;5437;50.852;4.438;2023-04-22T08:56:40;7.50;;;6.75;;
10769;SDS011;5437;50.852;4.438;2023-04-22T08:59:06;7.75;;;6.95;;
10769;SDS011;5437;50.852;4.438;2023-04-22T09:01:34;8.07;;;7.38;;
10769;SDS011;5437;50.852;4.438;2023-04-22T09:04:00;8.20;;;7.40;;
10769;SDS011;5437;50.852;4.438;2023-04-22T09:06:26;8.93;;;7.57;;
10769;SDS011;5437;50.852;4.438;2023-04-22T09:08:52;8.77;;;7.88;;
10769;SDS011;5437;50.852;4.438;2023-04-22T09:11:19;8.40;;;7.60;;
10769;SDS011;5437;50.852;4.438;2023-04-22T09:13:45;9.48;;;7.72;;
10769;SDS011;5437;50.852;4.438;2023-04-22T09:16:12;8.80;;;7.90;;
10769;SDS011;5437;50.852;4.438;2023-04-22T09:18:41;9.10;;;8.27;;
10769;SDS011;5437;50.852;4.438;2023-04-22T09:21:09;11.35;;;8.68;;
10769;SDS011;5437;50.852;4.438;2023-04-22T09:23:48;10.30;;;8.65;;
10769;SDS011;5437;50.852;4.438;2023-04-22T09:26:14;9.10;;;8.20;;
10769;SDS011;5437;50.852;4.438;2023-04-22T09:28:52;9.10;;;8.20;;
10769;SDS011;5437;50.852;4.438;2023-04-22T09:31:21;9.48;;;8.45;;
10769;SDS011;5437;50.852;4.438;2023-04-22T09:33:48;9.15;;;8.25;;
10769;SDS011;5437;50.852;4.438;2023-04-22T09:36:15;9.52;;;8.55;;
10769;SDS011;5437;50.852;4.438;2023-04-22T09:38:50;10.85;;;9.02;;
10769;SDS011;5437;50.852;4.438;2023-04-22T09:41:16;9.40;;;8.45;;
10769;SDS011;5437;50.852;4.438;2023-04-22T09:43:43;10.95;;;8.80;;
10769;SDS011;5437;50.852;4.438;2023-04-22T09:46:09;10.48;;;9.25;;
10769;SDS011;5437;50.852;4.438;2023-04-22T09:48:41;10.20;;;9.13;;
10769;SDS011;5437;50.852;4.438;2023-04-22T09:51:14;10.05;;;9.05;;
10769;SDS011;5437;50.852;4.438;2023-04-22T09:53:41;10.70;;;9.60;;
10769;SDS011;5437;50.852;4.438;2023-04-22T09:56:07;11.10;;;9.65;;
10769;SDS011;5437;50.852;4.438;2023-04-22T09:58:35;12.40;;;9.93;;
10769;SDS011;5437;50.852;4.438;2023-04-22T10:01:03;10.98;;;9.77;;
10769;SDS011;5437;50.852;4.438;2023-04-22T10:03:29;12.23;;;10.35;;
10769;SDS011;5437;50.852;4.438;2023-04-22T10:05:56;12.52;;;10.40;;
10769;SDS011;5437;50.852;4.438;2023-04-22T10:08:23;10.68;;;9.57;;
10769;SDS011;5437;50.852;4.438;2023-04-22T10:10:49;11.63;;;10.43;;
10769;SDS011;5437;50.852;4.438;2023-04-22T10:13:15;13.68;;;10.73;;
10769;SDS011;5437;50.852;4.438;2023-04-22T10:15:42;13.00;;;10.63;;
10769;SDS011;5437;50.852;4.438;2023-04-22T10:18:10;12.55;;;11.25;;
10769;SDS011;5437;50.852;4.438;2023-04-22T10:20:37;12.32;;;11.02;;
10769;SDS011;5437;50.852;4.438;2023-04-22T10:23:04;12.68;;;11.15;;
10769;SDS011;5437;50.852;4.438;2023-04-22T10:25:30;13.40;;;12.05;;
10769;SDS011;5437;50.852;4.438;2023-04-22T10:28:03;13.88;;;11.00;;
10769;SDS011;5437;50.852;4.438;2023-04-22T10:30:30;13.65;;;10.95;;
10769;SDS011;5437;50.852;4.438;2023-04-22T10:33:41;12.15;;;10.85;;
10769;SDS011;5437;50.852;4.438;2023-04-22T10:36:04;11.75;;;10.48;;
10769;SDS011;5437;50.852;4.438;2023-04-22T10:38:29;12.40;;;11.13;;
10769;SDS011;5437;50.852;4.438;2023-04-22T10:40:58;12.85;;;10.95;;
10769;SDS011;5437;50.852;4.438;2023-04-22T10:43:40;14.35;;;11.32;;
10769;SDS011;5437;50.852;4.438;2023-04-22T10:46:07;12.30;;;11.15;;
10769;SDS011;5437;50.852;4.438;2023-04-22T10:48:55;12.70;;;11.45;;
10769;SDS011;5437;50.852;4.438;2023-04-22T10:51:37;12.25;;;11.05;;
10769;SDS011;5437;50.852;4.438;2023-04-22T10:54:04;13.50;;;12.10;;
10769;SDS011;5437;50.852;4.438;2023-04-22T10:56:30;13.15;;;11.75;;
10769;SDS011;5437;50.852;4.438;2023-04-22T10:59:00;13.02;;;10.93;;
10769;SDS011;5437;50.852;4.438;2023-04-22T11:01:40;11.98;;;10.75;;
10769;SDS011;5437;50.852;4.438;2023-04-22T11:04:40;11.70;;;10.60;;
10769;SDS011;5437;50.852;4.438;2023-04-22T11:09:43;12.73;;;11.50;;
10769;SDS011;5437;50.852;4.438;2023-04-22T11:14:54;14.07;;;11.88;;
10769;SDS011;5437;50.852;4.438;2023-04-22T11:17:20;13.43;;;12.10;;
10769;SDS011;5437;50.852;4.438;2023-04-22T11:19:46;13.73;;;12.13;;
10769;SDS011;5437;50.852;4.438;2023-04-22T11:22:12;12.95;;;11.35;;
10769;SDS011;5437;50.852;4.438;2023-04-22T11:24:39;13.32;;;11.85;;
10769;SDS011;5437;50.852;4.438;2023-04-22T11:27:05;12.68;;;11.40;;
10769;SDS011;5437;50.852;4.438;2023-04-22T11:29:31;11.15;;;10.05;;
10769;SDS011;5437;50.852;4.438;2023-04-22T11:31:57;12.20;;;10.30;;
10769;SDS011;5437;50.852;4.438;2023-04-22T11:34:23;10.90;;;9.80;;
10769;SDS011;5437;50.852;4.438;2023-04-22T11:36:49;10.65;;;9.50;;
10769;SDS011;5437;50.852;4.438;2023-04-22T11:39:15;9.20;;;8.30;;
10769;SDS011;5437;50.852;4.438;2023-04-22T11:41:42;9.50;;;8.60;;
10769;SDS011;5437;50.852;4.438;2023-04-22T11:44:08;9.35;;;8.40;;
10769;SDS011;5437;50.852;4.438;2023-04-22T11:46:34;9.93;;;8.93;;
10769;SDS011;5437;50.852;4.438;2023-04-22T11:49:16;9.88;;;8.32;;
10769;SDS011;5437;50.852;4.438;2023-04-22T11:51:53;9.95;;;8.85;;
10769;SDS011;5437;50.852;4.438;2023-04-22T11:54:35;10.70;;;9.60;;
10769;SDS011;5437;50.852;4.438;2023-04-22T11:57:04;9.75;;;8.73;;
10769;SDS011;5437;50.852;4.438;2023-04-22T11:59:32;9.63;;;8.80;;
10769;SDS011;5437;50.852;4.438;2023-04-22T12:01:58;9.70;;;8.60;;
10769;SDS011;5437;50.852;4.438;2023-04-22T12:04:24;8.27;;;7.55;;
10769;SDS011;5437;50.852;4.438;2023-04-22T12:06:50;9.93;;;7.85;;
10769;SDS011;5437;50.852;4.438;2023-04-22T12:09:16;8.48;;;7.68;;
10769;SDS011;5437;50.852;4.438;2023-04-22T12:11:45;8.93;;;8.02;;
10769;SDS011;5437;50.852;4.438;2023-04-22T12:14:11;8.65;;;7.78;;
10769;SDS011;5437;50.852;4.438;2023-04-22T12:16:38;9.45;;;8.13;;
10769;SDS011;5437;50.852;4.438;2023-04-22T12:19:05;8.32;;;7.50;;
10769;SDS011;5437;50.852;4.438;2023-04-22T12:21:31;8.95;;;8.05;;
10769;SDS011;5437;50.852;4.438;2023-04-22T12:23:59;7.03;;;6.32;;
10769;SDS011;5437;50.852;4.438;2023-04-22T12:26:28;7.10;;;6.38;;
10769;SDS011;5437;50.852;4.438;2023-04-22T12:28:58;6.80;;;6.20;;
10769;SDS011;5437;50.852;4.438;2023-04-22T12:31:25;6.43;;;5.82;;
10769;SDS011;5437;50.852;4.438;2023-04-22T12:33:51;7.03;;;6.32;;
10769;SDS011;5437;50.852;4.438;2023-04-22T12:36:18;6.72;;;6.07;;
10769;SDS011;5437;50.852;4.438;2023-04-22T12:38:44;6.07;;;5.57;;
10769;SDS011;5437;50.852;4.438;2023-04-22T12:41:11;8.48;;;6.15;;
10769;SDS011;5437;50.852;4.438;2023-04-22T12:43:37;9.48;;;8.50;;
10769;SDS011;5437;50.852;4.438;2023-04-22T12:46:04;10.93;;;9.80;;
10769;SDS011;5437;50.852;4.438;2023-04-22T12:48:31;11.15;;;10.05;;
10769;SDS011;5437;50.852;4.438;2023-04-22T12:50:57;12.10;;;10.88;;
10769;SDS011;5437;50.852;4.438;2023-04-22T12:53:24;12.52;;;10.68;;
10769;SDS011;5437;50.852;4.438;2023-04-22T12:55:50;13.27;;;11.88;;
10769;SDS011;5437;50.852;4.438;2023-04-22T12:58:16;11.95;;;10.75;;
10769;SDS011;5437;50.852;4.438;2023-04-22T13:00:42;11.18;;;10.07;;
10769;SDS011;5437;50.852;4.438;2023-04-22T13:03:08;11.48;;;10.27;;
10769;SDS011;5437;50.852;4.438;2023-04-22T13:05:35;11.45;;;10.30;;
10769;SDS011;5437;50.852;4.438;2023-04-22T13:08:03;12.00;;;10.77;;
10769;SDS011;5437;50.852;4.438;2023-04-22T13:10:29;11.68;;;10.55;;
10769;SDS011;5437;50.852;4.438;2023-04-22T13:12:56;12.10;;;10.90;;
10769;SDS011;5437;50.852;4.438;2023-04-22T13:15:22;12.82;;;11.50;;
10769;SDS011;5437;50.852;4.438;2023-04-22T13:17:50;12.65;;;11.43;;
10769;SDS011;5437;50.852;4.438;2023-04-22T13:20:16;11.35;;;10.25;;
10769;SDS011;5437;50.852;4.438;2023-04-22T13:22:43;11.73;;;10.52;;
10769;SDS011;5437;50.852;4.438;2023-04-22T13:25:10;12.02;;;10.80;;
10769;SDS011;5437;50.852;4.438;2023-04-22T13:27:36;12.52;;;11.32;;
10769;SDS011;5437;50.852;4.438;2023-04-22T13:30:02;13.10;;;11.80;;
10769;SDS011;5437;50.852;4.438;2023-04-22T13:32:28;12.85;;;11.55;;
10769;SDS011;5437;50.852;4.438;2023-04-22T13:34:54;14.35;;;13.05;;
10769;SDS011;5437;50.852;4.438;2023-04-22T13:37:21;14.57;;;13.15;;
10769;SDS011;5437;50.852;4.438;2023-04-22T13:39:48;14.25;;;12.75;;
10769;SDS011;5437;50.852;4.438;2023-04-22T13:42:14;13.57;;;12.27;;
10769;SDS011;5437;50.852;4.438;2023-04-22T13:44:40;16.33;;;14.60;;
10769;SDS011;5437;50.852;4.438;2023-04-22T13:47:06;20.30;;;17.52;;
10769;SDS011;5437;50.852;4.438;2023-04-22T13:49:32;22.45;;;19.77;;
10769;SDS011;5437;50.852;4.438;2023-04-22T13:51:58;23.77;;;21.27;;
10769;SDS011;5437;50.852;4.438;2023-04-22T13:54:25;24.20;;;21.27;;
10769;SDS011;5437;50.852;4.438;2023-04-22T13:56:52;23.90;;;21.13;;
10769;SDS011;5437;50.852;4.438;2023-04-22T13:59:18;21.95;;;19.52;;
10769;SDS011;5437;50.852;4.438;2023-04-22T14:01:44;24.33;;;20.25;;
10769;SDS011;5437;50.852;4.438;2023-04-22T14:04:10;23.08;;;20.35;;
10769;SDS011;5437;50.852;4.438;2023-04-22T14:06:37;22.85;;;20.35;;
10769;SDS011;5437;50.852;4.438;2023-04-22T14:09:03;21.35;;;19.13;;
10769;SDS011;5437;50.852;4.438;2023-04-22T14:11:29;23.17;;;19.00;;
10769;SDS011;5437;50.852;4.438;2023-04-22T14:13:56;21.80;;;19.38;;
10769;SDS011;5437;50.852;4.438;2023-04-22T14:16:22;19.65;;;17.55;;
10769;SDS011;5437;50.852;4.438;2023-04-22T14:18:48;18.67;;;16.73;;
10769;SDS011;5437;50.852;4.438;2023-04-22T14:21:14;20.00;;;17.83;;
10769;SDS011;5437;50.852;4.438;2023-04-22T14:23:40;18.77;;;16.77;;
10769;SDS011;5437;50.852;4.438;2023-04-22T14:26:08;17.63;;;15.82;;
10769;SDS011;5437;50.852;4.438;2023-04-22T14:28:35;17.17;;;15.48;;
10769;SDS011;5437;50.852;4.438;2023-04-22T14:31:01;16.80;;;15.00;;
10769;SDS011;5437;50.852;4.438;2023-04-22T14:33:28;12.02;;;10.75;;
10769;SDS011;5437;50.852;4.438;2023-04-22T14:35:54;12.85;;;11.50;;
10769;SDS011;5437;50.852;4.438;2023-04-22T14:38:21;16.23;;;14.52;;
10769;SDS011;5437;50.852;4.438;2023-04-22T14:40:47;19.70;;;17.35;;
10769;SDS011;5437;50.852;4.438;2023-04-22T14:43:14;21.42;;;19.13;;